createdAt,value
2022-11-23T00:01:51.206Z,13.40
2022-11-23T00:04:55.051Z,11.63
2022-11-23T00:07:59.148Z,13.37
2022-11-23T00:11:04.577Z,11.63
2022-11-23T00:14:08.474Z,9.83
2022-11-23T00:17:12.259Z,14.27
2022-11-23T00:20:16.050Z,11.70
2022-11-23T00:23:19.908Z,11.57
2022-11-23T00:26:25.178Z,14.63
2022-11-23T00:29:29.108Z,15.33
2022-11-23T00:32:35.419Z,16.13
2022-11-23T00:35:39.069Z,15.70
2022-11-23T00:38:44.140Z,21.37
2022-11-23T00:41:49.700Z,21.57
2022-11-23T00:44:53.536Z,20.60
2022-11-23T00:47:57.344Z,14.33
2022-11-23T00:51:02.182Z,17.10
2022-11-23T00:54:07.478Z,14.70
2022-11-23T00:57:12.828Z,14.47
2022-11-23T01:00:17.488Z,20.53
2022-11-23T01:03:21.279Z,21.80
2022-11-23T01:06:27.159Z,17.87
2022-11-23T01:09:30.795Z,16.83
2022-11-23T01:12:36.168Z,16.50
2022-11-23T01:15:50.058Z,18.63
2022-11-23T01:18:56.316Z,11.80
2022-11-23T01:22:01.931Z,11.27
2022-11-23T01:25:08.538Z,8.40
2022-11-23T01:28:16.519Z,6.53
2022-11-23T01:31:23.008Z,9.63
2022-11-23T01:34:29.243Z,8.57
2022-11-23T01:37:35.838Z,7.63
2022-11-23T01:40:43.918Z,5.20
2022-11-23T01:43:49.230Z,7.67
2022-11-23T01:46:54.813Z,15.03
2022-11-23T01:49:58.566Z,16.73
2022-11-23T01:53:02.440Z,19.40
2022-11-23T01:56:12.032Z,18.50
2022-11-23T01:59:21.353Z,16.57
2022-11-23T02:02:28.130Z,18.43
2022-11-23T02:05:35.468Z,16.60
2022-11-23T02:08:39.766Z,14.90
2022-11-23T02:11:44.992Z,16.87
2022-11-23T02:14:55.100Z,17.03
2022-11-23T02:18:00.900Z,16.07
2022-11-23T02:21:06.318Z,15.13
2022-11-23T02:24:16.302Z,15.30
2022-11-23T02:27:22.399Z,18.87
2022-11-23T02:30:26.777Z,16.30
2022-11-23T02:33:31.548Z,21.93
2022-11-23T02:36:42.051Z,18.70
2022-11-23T02:39:49.624Z,19.50
2022-11-23T02:42:54.853Z,16.93
2022-11-23T02:46:01.051Z,17.23
2022-11-23T02:49:04.687Z,17.90
2022-11-23T02:52:08.998Z,17.23
2022-11-23T02:55:12.641Z,18.47
2022-11-23T02:58:17.808Z,19.30
2022-11-23T03:01:21.626Z,16.20
2022-11-23T03:04:27.795Z,19.03
2022-11-23T03:07:32.065Z,17.37
2022-11-23T03:10:36.269Z,18.97
2022-11-23T03:13:41.317Z,18.83
2022-11-23T03:16:46.276Z,19.50
2022-11-23T03:19:53.243Z,16.33
2022-11-23T03:22:57.030Z,13.83
2022-11-23T03:26:01.839Z,17.40
2022-11-23T03:29:12.899Z,14.83
2022-11-23T03:32:17.182Z,15.17
2022-11-23T03:35:24.156Z,13.10
2022-11-23T03:38:46.481Z,16.27
2022-11-23T03:42:10.450Z,12.97
2022-11-23T03:45:16.271Z,15.77
2022-11-23T03:48:20.049Z,13.80
2022-11-23T03:51:25.311Z,14.60
2022-11-23T03:54:29.046Z,15.00
2022-11-23T03:57:32.772Z,15.17
2022-11-23T04:00:40.656Z,19.73
2022-11-23T04:03:46.211Z,13.00
2022-11-23T04:06:53.414Z,13.37
2022-11-23T04:10:10.889Z,15.27
2022-11-23T04:13:34.619Z,14.17
2022-11-23T04:16:40.628Z,16.60
2022-11-23T04:19:44.519Z,13.57
2022-11-23T04:22:49.429Z,13.10
2022-11-23T04:25:53.586Z,14.10
2022-11-23T04:28:57.362Z,11.43
2022-11-23T04:32:02.730Z,13.93
2022-11-23T04:35:07.179Z,12.27
2022-11-23T04:38:11.885Z,13.93
2022-11-23T04:41:15.806Z,13.20
2022-11-23T04:44:21.329Z,12.17
2022-11-23T04:47:31.606Z,10.97
2022-11-23T04:50:40.742Z,9.07
2022-11-23T04:53:46.722Z,12.80
2022-11-23T04:56:50.622Z,11.50
2022-11-23T04:59:54.420Z,10.03
2022-11-23T05:03:02.356Z,11.80
2022-11-23T05:06:09.465Z,9.83
2022-11-23T05:09:17.950Z,11.57
2022-11-23T05:12:42.083Z,8.93
2022-11-23T05:15:47.116Z,9.73
2022-11-23T05:18:57.761Z,8.97
2022-11-23T05:22:01.767Z,12.83
2022-11-23T05:25:08.627Z,11.07
2022-11-23T05:28:39.201Z,8.60
2022-11-23T05:31:42.149Z,8.23
2022-11-23T05:34:47.448Z,9.53
2022-11-23T05:37:53.939Z,7.47
2022-11-23T05:40:57.667Z,11.77
2022-11-23T05:44:02.197Z,9.20
2022-11-23T05:47:07.548Z,12.37
2022-11-23T05:50:14.371Z,9.57
2022-11-23T05:53:21.928Z,8.27
2022-11-23T05:56:37.167Z,9.07
2022-11-23T05:59:55.590Z,7.70
2022-11-23T06:03:05.986Z,10.27
2022-11-23T06:06:12.698Z,11.83
2022-11-23T06:09:19.137Z,11.40
2022-11-23T06:12:24.118Z,10.40
2022-11-23T06:15:27.948Z,9.67
2022-11-23T06:18:31.896Z,12.17
2022-11-23T06:21:37.159Z,10.83
2022-11-23T06:24:41.179Z,11.33
2022-11-23T06:28:05.127Z,10.97
2022-11-23T06:31:22.308Z,9.87
2022-11-23T06:34:26.107Z,20.60
2022-11-23T06:37:31.456Z,12.73
2022-11-23T06:40:35.427Z,13.60
2022-11-23T06:43:39.908Z,12.60
2022-11-23T06:46:44.207Z,10.60
2022-11-23T06:49:47.979Z,14.80
2022-11-23T06:53:02.237Z,9.83
2022-11-23T06:56:14.547Z,13.83
2022-11-23T06:59:19.587Z,13.20
2022-11-23T07:02:23.460Z,14.43
2022-11-23T07:05:27.747Z,15.07
2022-11-23T07:08:33.167Z,15.73
2022-11-23T07:11:45.568Z,14.90
2022-11-23T07:14:49.608Z,15.20
2022-11-23T07:17:53.458Z,14.83
2022-11-23T07:20:59.760Z,14.60
2022-11-23T07:24:05.627Z,18.10
2022-11-23T07:27:09.407Z,15.60
2022-11-23T07:30:13.879Z,14.80
2022-11-23T07:33:17.707Z,15.80
2022-11-23T07:36:25.329Z,16.10
2022-11-23T07:39:55.206Z,24.53
2022-11-23T07:42:54.918Z,16.03
2022-11-23T07:45:58.698Z,16.43
2022-11-23T07:49:02.938Z,19.63
2022-11-23T07:52:06.517Z,21.13
2022-11-23T07:55:11.934Z,19.30
2022-11-23T07:58:15.597Z,21.57
2022-11-23T08:01:21.111Z,20.37
2022-11-23T08:04:24.717Z,20.53
2022-11-23T08:07:28.512Z,26.07
2022-11-23T08:10:36.621Z,24.33
2022-11-23T08:13:44.128Z,20.70
2022-11-23T08:16:50.450Z,23.93
2022-11-23T08:19:54.138Z,20.73
2022-11-23T08:22:58.268Z,21.83
2022-11-23T08:26:10.351Z,22.33
2022-11-23T08:29:17.198Z,22.97
2022-11-23T08:32:20.998Z,20.00
2022-11-23T08:35:25.389Z,19.43
2022-11-23T08:38:29.070Z,21.20
2022-11-23T08:41:34.997Z,20.77
2022-11-23T08:44:38.699Z,18.57
2022-11-23T08:47:42.660Z,19.70
2022-11-23T08:50:46.428Z,19.93
2022-11-23T08:53:50.382Z,18.47
2022-11-23T08:56:55.488Z,17.73
2022-11-23T08:59:59.259Z,18.33
2022-11-23T09:03:03.072Z,20.23
2022-11-23T09:06:07.408Z,19.37
2022-11-23T09:09:11.228Z,20.53
2022-11-23T09:12:16.388Z,16.70
2022-11-23T09:15:20.445Z,19.77
2022-11-23T09:18:24.406Z,16.67
2022-11-23T09:21:33.507Z,20.03
2022-11-23T09:24:37.564Z,16.93
2022-11-23T09:27:43.029Z,19.67
2022-11-23T09:30:47.128Z,15.67
2022-11-23T09:33:54.213Z,16.57
2022-11-23T09:36:58.508Z,22.40
2022-11-23T09:40:02.308Z,15.47
2022-11-23T09:43:32.890Z,13.40
2022-11-23T09:46:50.549Z,14.97
2022-11-23T09:50:03.779Z,18.90
2022-11-23T09:53:14.998Z,18.90
2022-11-23T09:56:22.463Z,17.87
2022-11-23T09:59:38.607Z,17.10
2022-11-23T10:02:42.907Z,22.13
2022-11-23T10:05:58.748Z,19.60
2022-11-23T10:09:21.058Z,15.63
2022-11-23T10:12:40.135Z,17.43
2022-11-23T10:16:04.385Z,20.30
2022-11-23T10:19:19.442Z,15.70
2022-11-23T10:22:28.387Z,16.13
2022-11-23T10:25:39.415Z,22.03
2022-11-23T10:28:43.509Z,17.20
2022-11-23T10:31:55.609Z,16.77
2022-11-23T10:35:05.708Z,15.63
2022-11-23T10:38:18.771Z,12.73
2022-11-23T10:41:23.198Z,20.63
2022-11-23T10:44:32.475Z,18.00
2022-11-23T10:47:43.108Z,18.87
2022-11-23T10:50:47.878Z,22.37
2022-11-23T10:54:05.233Z,18.30
2022-11-23T10:57:39.658Z,20.40
2022-11-23T11:00:49.237Z,16.47
2022-11-23T11:04:00.598Z,14.83
2022-11-23T11:07:47.541Z,16.23
2022-11-23T11:10:59.859Z,13.17
2022-11-23T11:14:06.788Z,14.43
2022-11-23T11:17:28.286Z,12.37
2022-11-23T11:20:35.708Z,14.77
2022-11-23T11:23:42.768Z,13.00
2022-11-23T11:26:52.377Z,14.20
2022-11-23T11:30:00.729Z,18.20
2022-11-23T11:33:10.758Z,17.60
2022-11-23T11:36:19.239Z,10.97
2022-11-23T11:39:30.288Z,13.63
2022-11-23T11:42:38.160Z,19.63
2022-11-23T11:49:15.049Z,13.43
2022-11-23T11:52:23.937Z,12.13
2022-11-23T11:55:32.337Z,12.20
2022-11-23T11:58:42.893Z,13.57
2022-11-23T12:01:55.689Z,12.40
2022-11-23T12:05:09.368Z,10.20
2022-11-23T12:08:18.888Z,11.30
2022-11-23T12:11:23.167Z,17.93
2022-11-23T12:14:27.380Z,12.83
2022-11-23T12:18:12.658Z,22.40
2022-11-23T12:21:41.296Z,17.17
2022-11-23T12:25:05.429Z,15.30
2022-11-23T12:28:42.603Z,11.33
2022-11-23T12:31:53.379Z,14.90
2022-11-23T12:35:23.628Z,15.77
2022-11-23T12:38:32.944Z,14.37
2022-11-23T12:41:44.979Z,14.47
2022-11-23T12:45:05.498Z,14.77
2022-11-23T12:48:25.320Z,13.63
2022-11-23T12:51:37.548Z,13.27
2022-11-23T12:54:55.088Z,17.00
2022-11-23T12:58:06.408Z,15.60
2022-11-23T13:01:16.757Z,15.67
2022-11-23T13:04:54.219Z,15.50
2022-11-23T13:08:13.259Z,19.23
2022-11-23T13:11:28.371Z,16.00
2022-11-23T13:14:41.379Z,15.90
2022-11-23T13:17:56.558Z,16.20
2022-11-23T13:21:12.960Z,15.83
2022-11-23T13:24:27.599Z,15.43
2022-11-23T13:27:44.301Z,15.03
2022-11-23T13:31:20.189Z,16.50
2022-11-23T13:34:45.980Z,16.00
2022-11-23T13:38:20.698Z,22.30
2022-11-23T13:42:01.968Z,13.40
2022-11-23T13:45:36.985Z,15.17
2022-11-23T13:48:56.664Z,14.17
2022-11-23T13:52:28.850Z,17.07
2022-11-23T13:55:36.761Z,16.47
2022-11-23T13:58:42.020Z,19.07
2022-11-23T14:02:30.333Z,16.93
2022-11-23T14:05:58.246Z,13.90
2022-11-23T14:09:08.331Z,14.20
2022-11-23T14:12:20.161Z,12.23
2022-11-23T14:15:25.666Z,13.23
2022-11-23T14:18:57.928Z,14.57
2022-11-23T14:22:09.149Z,14.77
2022-11-23T14:25:40.191Z,14.23
2022-11-23T14:28:56.141Z,13.87
2022-11-23T14:32:29.822Z,22.10
2022-11-23T14:35:42.265Z,18.07
2022-11-23T14:39:20.966Z,20.03
2022-11-23T14:42:29.648Z,19.33
2022-11-23T14:45:35.978Z,23.63
2022-11-23T14:48:39.728Z,15.67
2022-11-23T14:51:45.584Z,16.97
2022-11-23T14:54:51.395Z,25.93
2022-11-23T14:57:59.790Z,20.10
2022-11-23T15:01:04.838Z,19.37
2022-11-23T15:04:11.144Z,16.37
2022-11-23T15:07:21.125Z,16.30
2022-11-23T15:10:53.690Z,17.63
2022-11-23T15:14:03.502Z,27.67
2022-11-23T15:17:17.050Z,31.67
2022-11-23T15:20:21.559Z,28.67
2022-11-23T15:23:30.048Z,27.80
2022-11-23T15:26:48.131Z,38.70
2022-11-23T15:29:56.780Z,46.53
2022-11-23T15:33:02.598Z,46.00
2022-11-23T15:36:06.867Z,44.83
2022-11-23T15:39:18.741Z,39.97
2022-11-23T15:42:26.118Z,39.70
2022-11-23T15:45:39.189Z,44.70
2022-11-23T15:48:42.974Z,40.93
2022-11-23T15:51:47.959Z,30.37
2022-11-23T15:54:51.698Z,34.57
2022-11-23T15:57:56.722Z,38.77
2022-11-23T16:01:08.723Z,44.17
2022-11-23T16:04:28.119Z,42.27
2022-11-23T16:07:32.347Z,44.03
2022-11-23T16:10:36.478Z,66.57
2022-11-23T16:13:41.379Z,46.53
2022-11-23T16:16:49.341Z,179.03
2022-11-23T16:19:54.663Z,111.57
2022-11-23T16:23:00.796Z,112.07
2022-11-23T16:26:07.388Z,131.00
2022-11-23T16:29:23.596Z,168.53
2022-11-23T16:32:31.472Z,161.90
2022-11-23T16:35:35.079Z,168.53
2022-11-23T16:38:38.689Z,112.60
2022-11-23T16:41:42.751Z,92.50
2022-11-23T16:44:46.430Z,79.03
2022-11-23T16:47:56.151Z,94.10
2022-11-23T16:50:59.759Z,87.50
2022-11-23T16:54:23.426Z,92.37
2022-11-23T16:57:33.403Z,93.63
2022-11-23T17:00:37.185Z,83.97
2022-11-23T17:03:43.288Z,91.80
2022-11-23T17:06:47.026Z,74.83
2022-11-23T17:09:50.841Z,96.40
2022-11-23T17:12:56.649Z,90.07
2022-11-23T17:16:00.619Z,86.57
2022-11-23T17:19:05.740Z,79.20
2022-11-23T17:22:09.439Z,69.13
2022-11-23T17:25:15.317Z,78.37
2022-11-23T17:28:22.619Z,60.50
2022-11-23T17:31:26.595Z,62.57
2022-11-23T17:34:31.806Z,105.27
2022-11-23T17:37:35.718Z,137.30
2022-11-23T17:40:39.508Z,92.17
2022-11-23T17:43:43.448Z,74.20
2022-11-23T17:46:48.507Z,73.63
2022-11-23T17:49:53.929Z,91.10
2022-11-23T17:52:57.648Z,78.83
2022-11-23T17:56:01.809Z,74.47
2022-11-23T17:59:06.848Z,80.53
2022-11-23T18:02:11.249Z,105.77
2022-11-23T18:05:21.606Z,99.13
2022-11-23T18:08:29.379Z,86.87
2022-11-23T18:11:33.142Z,90.27
2022-11-23T18:14:36.970Z,100.93
2022-11-23T18:17:41.258Z,96.70
2022-11-23T18:20:46.418Z,97.33
2022-11-23T18:23:50.138Z,83.47
2022-11-23T18:26:54.228Z,238.77
2022-11-23T18:29:58.038Z,120.13
2022-11-23T18:33:01.788Z,382.47
2022-11-23T18:36:17.169Z,457.70
2022-11-23T18:39:20.929Z,109.53
2022-11-23T18:42:27.526Z,92.93
2022-11-23T18:45:31.218Z,99.57
2022-11-23T18:48:40.618Z,114.60
2022-11-23T18:51:53.797Z,102.80
2022-11-23T18:55:00.082Z,100.33
2022-11-23T18:58:03.938Z,117.67
2022-11-23T19:01:12.702Z,162.43
2022-11-23T19:04:16.968Z,139.03
2022-11-23T19:07:26.538Z,178.03
2022-11-23T19:10:30.788Z,117.10
2022-11-23T19:13:36.269Z,125.33
2022-11-23T19:16:39.968Z,119.33
2022-11-23T19:19:43.910Z,109.47
2022-11-23T19:22:49.088Z,99.43
2022-11-23T19:25:52.778Z,100.57
2022-11-23T19:28:57.411Z,98.10
2022-11-23T19:32:01.220Z,99.07
2022-11-23T19:35:05.720Z,119.30
2022-11-23T19:38:11.768Z,102.13
2022-11-23T19:41:15.688Z,115.03
2022-11-23T19:44:19.571Z,105.10
2022-11-23T19:47:23.258Z,109.30
2022-11-23T19:50:26.978Z,94.53
2022-11-23T19:53:34.208Z,97.03
2022-11-23T19:56:38.779Z,73.47
2022-11-23T19:59:42.558Z,71.27
2022-11-23T20:02:47.269Z,63.63
2022-11-23T20:05:56.639Z,53.73
2022-11-23T20:09:03.348Z,57.37
2022-11-23T20:12:07.626Z,51.67
2022-11-23T20:15:11.782Z,54.07
2022-11-23T20:18:15.768Z,50.83
2022-11-23T20:21:20.980Z,54.90
2022-11-23T20:24:26.034Z,48.60
2022-11-23T20:27:29.759Z,39.63
2022-11-23T20:30:35.214Z,47.03
2022-11-23T20:33:38.948Z,47.33
2022-11-23T20:36:42.797Z,48.47
2022-11-23T20:39:47.856Z,52.00
2022-11-23T20:42:51.568Z,55.00
2022-11-23T20:45:55.198Z,67.83
2022-11-23T20:48:58.998Z,67.77
2022-11-23T20:52:03.182Z,63.47
2022-11-23T20:55:09.048Z,40.63
2022-11-23T20:58:13.109Z,42.73
2022-11-23T21:01:18.992Z,32.63
2022-11-23T21:04:22.748Z,32.83
2022-11-23T21:07:26.505Z,34.57
2022-11-23T21:10:48.648Z,34.63
2022-11-23T21:14:15.838Z,35.60
2022-11-23T21:17:21.608Z,39.67
2022-11-23T21:20:26.768Z,39.57
2022-11-23T21:23:34.267Z,40.00
2022-11-23T21:26:39.899Z,42.37
2022-11-23T21:29:45.280Z,39.13
2022-11-23T21:32:51.358Z,38.57
2022-11-23T21:35:55.108Z,38.23
2022-11-23T21:38:58.768Z,34.07
2022-11-23T21:42:04.007Z,39.27
2022-11-23T21:45:09.148Z,37.83
2022-11-23T21:48:12.807Z,40.17
2022-11-23T21:51:17.367Z,35.43
2022-11-23T21:54:20.987Z,36.97
2022-11-23T21:57:26.148Z,36.07
2022-11-23T22:00:31.556Z,36.43
2022-11-23T22:03:38.161Z,35.73
2022-11-23T22:06:44.538Z,31.97
2022-11-23T22:09:48.269Z,37.30
2022-11-23T22:12:53.425Z,40.73
2022-11-23T22:15:57.080Z,36.53
2022-11-23T22:19:01.358Z,36.13
2022-11-23T22:22:05.807Z,34.30
2022-11-23T22:25:10.908Z,37.00
2022-11-23T22:28:16.008Z,33.93
2022-11-23T22:31:22.201Z,34.87
2022-11-23T22:34:26.558Z,34.50
2022-11-23T22:37:30.245Z,38.83
2022-11-23T22:40:34.408Z,38.93
2022-11-23T22:43:39.549Z,36.73
2022-11-23T22:46:45.958Z,36.10
2022-11-23T22:49:49.540Z,34.47
2022-11-23T22:52:53.230Z,38.03
2022-11-23T22:56:02.087Z,56.73
2022-11-23T22:59:07.539Z,87.53
2022-11-23T23:02:11.298Z,35.77
2022-11-23T23:05:15.189Z,36.53
2022-11-23T23:08:18.929Z,32.13
2022-11-23T23:11:22.970Z,36.83
2022-11-23T23:14:28.137Z,33.57
2022-11-23T23:17:31.749Z,33.07
2022-11-23T23:20:36.318Z,36.10
2022-11-23T23:23:40.929Z,36.70
2022-11-23T23:26:44.630Z,33.30
2022-11-23T23:29:49.718Z,36.40
2022-11-23T23:32:57.334Z,33.00
2022-11-23T23:36:05.476Z,39.73
2022-11-23T23:39:09.698Z,28.73
2022-11-23T23:42:13.418Z,33.50
2022-11-23T23:45:18.578Z,29.47
2022-11-23T23:48:22.250Z,31.87
2022-11-23T23:51:26.088Z,31.60
2022-11-23T23:54:29.730Z,31.70
2022-11-23T23:57:33.839Z,28.70
